sensor_id;sensor_type;location;lat;lon;timestamp;temperature;humidity
20463;DHT22;10390;53.566;9.980;2024-01-11T00:00:16;26.20;1.00
20463;DHT22;10390;53.566;9.980;2024-01-11T00:02:42;26.20;1.00
20463;DHT22;10390;53.566;9.980;2024-01-11T00:05:08;26.20;1.00
20463;DHT22;10390;53.566;9.980;2024-01-11T00:07:34;26.20;1.00
20463;DHT22;10390;53.566;9.980;2024-01-11T00:10:01;26.20;1.00
20463;DHT22;10390;53.566;9.980;2024-01-11T00:12:27;26.10;1.00
20463;DHT22;10390;53.566;9.980;2024-01-11T00:14:52;26.10;1.00
20463;DHT22;10390;53.566;9.980;2024-01-11T00:17:18;26.10;1.00
20463;DHT22;10390;53.566;9.980;2024-01-11T00:19:44;26.10;1.00
20463;DHT22;10390;53.566;9.980;2024-01-11T00:22:10;26.00;1.00
20463;DHT22;10390;53.566;9.980;2024-01-11T00:24:35;26.00;1.00
20463;DHT22;10390;53.566;9.980;2024-01-11T00:27:01;26.00;1.00
20463;DHT22;10390;53.566;9.980;2024-01-11T00:29:27;25.90;1.00
20463;DHT22;10390;53.566;9.980;2024-01-11T00:31:54;26.00;1.00
20463;DHT22;10390;53.566;9.980;2024-01-11T00:34:19;26.00;1.00
20463;DHT22;10390;53.566;9.980;2024-01-11T00:36:45;26.00;1.00
20463;DHT22;10390;53.566;9.980;2024-01-11T00:39:11;26.00;1.00
20463;DHT22;10390;53.566;9.980;2024-01-11T00:41:37;26.10;1.00
20463;DHT22;10390;53.566;9.980;2024-01-11T00:44:03;26.10;1.00
20463;DHT22;10390;53.566;9.980;2024-01-11T00:46:28;26.10;1.00
20463;DHT22;10390;53.566;9.980;2024-01-11T00:48:54;26.10;1.00
20463;DHT22;10390;53.566;9.980;2024-01-11T00:51:19;26.10;1.00
20463;DHT22;10390;53.566;9.980;2024-01-11T00:53:45;26.10;1.00
20463;DHT22;10390;53.566;9.980;2024-01-11T00:56:20;26.10;1.00
20463;DHT22;10390;53.566;9.980;2024-01-11T00:58:46;26.10;1.00
20463;DHT22;10390;53.566;9.980;2024-01-11T01:01:12;26.10;1.00
20463;DHT22;10390;53.566;9.980;2024-01-11T01:03:38;26.10;1.00
20463;DHT22;10390;53.566;9.980;2024-01-11T01:06:04;26.10;1.00
20463;DHT22;10390;53.566;9.980;2024-01-11T01:08:30;26.10;1.00
20463;DHT22;10390;53.566;9.980;2024-01-11T01:10:56;26.00;1.00
20463;DHT22;10390;53.566;9.980;2024-01-11T01:13:22;26.00;1.00
20463;DHT22;10390;53.566;9.980;2024-01-11T01:15:47;26.00;1.00
20463;DHT22;10390;53.566;9.980;2024-01-11T01:18:13;25.90;1.00
20463;DHT22;10390;53.566;9.980;2024-01-11T01:20:39;25.90;1.00
20463;DHT22;10390;53.566;9.980;2024-01-11T01:23:05;25.90;1.00
20463;DHT22;10390;53.566;9.980;2024-01-11T01:25:30;25.90;1.00
20463;DHT22;10390;53.566;9.980;2024-01-11T01:27:56;25.90;1.00
20463;DHT22;10390;53.566;9.980;2024-01-11T01:30:22;25.90;1.00
20463;DHT22;10390;53.566;9.980;2024-01-11T01:32:48;25.90;1.00
20463;DHT22;10390;53.566;9.980;2024-01-11T01:35:14;25.90;1.00
20463;DHT22;10390;53.566;9.980;2024-01-11T01:37:40;25.90;1.00
20463;DHT22;10390;53.566;9.980;2024-01-11T01:40:06;26.00;1.00
20463;DHT22;10390;53.566;9.980;2024-01-11T01:42:33;26.00;1.00
20463;DHT22;10390;53.566;9.980;2024-01-11T01:44:58;26.00;1.00
20463;DHT22;10390;53.566;9.980;2024-01-11T01:47:24;26.00;1.00
20463;DHT22;10390;53.566;9.980;2024-01-11T01:49:51;26.00;1.00
20463;DHT22;10390;53.566;9.980;2024-01-11T01:52:17;26.00;1.00
20463;DHT22;10390;53.566;9.980;2024-01-11T01:54:44;26.10;1.00
20463;DHT22;10390;53.566;9.980;2024-01-11T01:57:10;26.00;1.00
20463;DHT22;10390;53.566;9.980;2024-01-11T01:59:37;26.10;1.00
20463;DHT22;10390;53.566;9.980;2024-01-11T02:02:04;26.00;1.00
20463;DHT22;10390;53.566;9.980;2024-01-11T02:04:30;26.00;1.00
20463;DHT22;10390;53.566;9.980;2024-01-11T02:06:57;26.00;1.00
20463;DHT22;10390;53.566;9.980;2024-01-11T02:09:24;26.00;1.00
20463;DHT22;10390;53.566;9.980;2024-01-11T02:11:52;26.00;1.00
20463;DHT22;10390;53.566;9.980;2024-01-11T02:14:18;26.00;1.00
20463;DHT22;10390;53.566;9.980;2024-01-11T02:16:44;25.90;1.00
20463;DHT22;10390;53.566;9.980;2024-01-11T02:19:12;25.90;1.00
20463;DHT22;10390;53.566;9.980;2024-01-11T02:21:38;25.90;1.00
20463;DHT22;10390;53.566;9.980;2024-01-11T02:24:06;25.90;1.00
20463;DHT22;10390;53.566;9.980;2024-01-11T02:26:32;25.80;1.00
20463;DHT22;10390;53.566;9.980;2024-01-11T02:28:58;25.80;1.00
20463;DHT22;10390;53.566;9.980;2024-01-11T02:31:24;25.90;1.00
20463;DHT22;10390;53.566;9.980;2024-01-11T02:33:54;25.90;1.00
20463;DHT22;10390;53.566;9.980;2024-01-11T02:36:21;25.90;1.00
20463;DHT22;10390;53.566;9.980;2024-01-11T02:38:47;25.90;1.00
20463;DHT22;10390;53.566;9.980;2024-01-11T02:41:15;26.00;1.00
20463;DHT22;10390;53.566;9.980;2024-01-11T02:43:46;26.00;1.00
20463;DHT22;10390;53.566;9.980;2024-01-11T02:46:12;26.10;1.00
20463;DHT22;10390;53.566;9.980;2024-01-11T02:48:38;26.10;1.00
20463;DHT22;10390;53.566;9.980;2024-01-11T02:51:04;26.10;1.00
20463;DHT22;10390;53.566;9.980;2024-01-11T02:53:29;26.10;1.00
20463;DHT22;10390;53.566;9.980;2024-01-11T02:56:00;26.00;1.00
20463;DHT22;10390;53.566;9.980;2024-01-11T02:58:25;26.00;1.00
20463;DHT22;10390;53.566;9.980;2024-01-11T03:00:51;26.00;1.00
20463;DHT22;10390;53.566;9.980;2024-01-11T03:03:16;26.00;1.00
20463;DHT22;10390;53.566;9.980;2024-01-11T03:05:42;25.90;1.00
20463;DHT22;10390;53.566;9.980;2024-01-11T03:08:07;25.90;1.00
20463;DHT22;10390;53.566;9.980;2024-01-11T03:10:33;25.80;1.00
20463;DHT22;10390;53.566;9.980;2024-01-11T03:12:59;25.80;1.00
20463;DHT22;10390;53.566;9.980;2024-01-11T03:15:25;25.80;1.00
20463;DHT22;10390;53.566;9.980;2024-01-11T03:17:50;25.80;1.00
20463;DHT22;10390;53.566;9.980;2024-01-11T03:20:16;25.70;1.00
20463;DHT22;10390;53.566;9.980;2024-01-11T03:22:46;25.70;1.00
20463;DHT22;10390;53.566;9.980;2024-01-11T03:25:12;25.80;1.00
20463;DHT22;10390;53.566;9.980;2024-01-11T03:27:37;25.80;1.00
20463;DHT22;10390;53.566;9.980;2024-01-11T03:30:03;25.80;1.00
20463;DHT22;10390;53.566;9.980;2024-01-11T03:32:29;25.80;1.00
20463;DHT22;10390;53.566;9.980;2024-01-11T03:34:55;25.90;1.00
20463;DHT22;10390;53.566;9.980;2024-01-11T03:37:21;25.90;1.00
20463;DHT22;10390;53.566;9.980;2024-01-11T03:39:46;26.00;1.00
20463;DHT22;10390;53.566;9.980;2024-01-11T03:42:12;26.00;1.00
20463;DHT22;10390;53.566;9.980;2024-01-11T03:44:37;26.00;1.00
20463;DHT22;10390;53.566;9.980;2024-01-11T03:47:04;26.00;1.00
20463;DHT22;10390;53.566;9.980;2024-01-11T03:49:29;26.10;1.00
20463;DHT22;10390;53.566;9.980;2024-01-11T03:51:55;26.10;1.00
20463;DHT22;10390;53.566;9.980;2024-01-11T03:54:20;26.10;1.00
20463;DHT22;10390;53.566;9.980;2024-01-11T03:56:46;26.00;1.00
20463;DHT22;10390;53.566;9.980;2024-01-11T03:59:12;26.00;1.00
20463;DHT22;10390;53.566;9.980;2024-01-11T04:01:41;26.00;1.00
20463;DHT22;10390;53.566;9.980;2024-01-11T04:04:06;25.90;1.00
20463;DHT22;10390;53.566;9.980;2024-01-11T04:06:32;25.90;1.00
20463;DHT22;10390;53.566;9.980;2024-01-11T04:08:58;25.90;1.00
20463;DHT22;10390;53.566;9.980;2024-01-11T04:11:27;25.80;1.00
20463;DHT22;10390;53.566;9.980;2024-01-11T04:13:53;25.80;1.00
20463;DHT22;10390;53.566;9.980;2024-01-11T04:16:18;25.80;1.00
20463;DHT22;10390;53.566;9.980;2024-01-11T04:18:44;25.80;1.00
20463;DHT22;10390;53.566;9.980;2024-01-11T04:21:23;25.80;1.00
20463;DHT22;10390;53.566;9.980;2024-01-11T04:23:49;25.80;1.00
20463;DHT22;10390;53.566;9.980;2024-01-11T04:26:15;25.80;1.00
20463;DHT22;10390;53.566;9.980;2024-01-11T04:28:41;25.90;1.00
20463;DHT22;10390;53.566;9.980;2024-01-11T04:31:08;25.90;1.00
20463;DHT22;10390;53.566;9.980;2024-01-11T04:33:33;25.90;1.00
20463;DHT22;10390;53.566;9.980;2024-01-11T04:35:59;25.90;1.00
20463;DHT22;10390;53.566;9.980;2024-01-11T04:38:25;26.00;1.00
20463;DHT22;10390;53.566;9.980;2024-01-11T04:40:50;26.00;1.00
20463;DHT22;10390;53.566;9.980;2024-01-11T04:43:16;26.00;1.00
20463;DHT22;10390;53.566;9.980;2024-01-11T04:45:41;26.00;1.00
20463;DHT22;10390;53.566;9.980;2024-01-11T04:48:07;26.00;1.00
20463;DHT22;10390;53.566;9.980;2024-01-11T04:50:32;26.00;1.00
20463;DHT22;10390;53.566;9.980;2024-01-11T04:52:58;26.00;1.00
20463;DHT22;10390;53.566;9.980;2024-01-11T04:55:23;25.90;1.00
20463;DHT22;10390;53.566;9.980;2024-01-11T04:57:49;25.90;1.00
20463;DHT22;10390;53.566;9.980;2024-01-11T05:00:15;25.80;1.00
20463;DHT22;10390;53.566;9.980;2024-01-11T05:02:40;25.80;1.00
20463;DHT22;10390;53.566;9.980;2024-01-11T05:05:06;25.80;1.00
20463;DHT22;10390;53.566;9.980;2024-01-11T05:07:32;25.80;1.00
20463;DHT22;10390;53.566;9.980;2024-01-11T05:09:57;25.80;1.00
20463;DHT22;10390;53.566;9.980;2024-01-11T05:12:23;25.80;1.00
20463;DHT22;10390;53.566;9.980;2024-01-11T05:14:48;25.80;1.00
20463;DHT22;10390;53.566;9.980;2024-01-11T05:17:14;25.70;1.00
20463;DHT22;10390;53.566;9.980;2024-01-11T05:19:40;25.80;1.00
20463;DHT22;10390;53.566;9.980;2024-01-11T05:22:05;25.80;1.00
20463;DHT22;10390;53.566;9.980;2024-01-11T05:24:31;25.80;1.00
20463;DHT22;10390;53.566;9.980;2024-01-11T05:26:56;25.90;1.00
20463;DHT22;10390;53.566;9.980;2024-01-11T05:29:23;25.90;1.00
20463;DHT22;10390;53.566;9.980;2024-01-11T05:31:48;25.90;1.00
20463;DHT22;10390;53.566;9.980;2024-01-11T05:34:14;25.80;1.00
20463;DHT22;10390;53.566;9.980;2024-01-11T05:36:40;25.80;1.00
20463;DHT22;10390;53.566;9.980;2024-01-11T05:39:05;25.90;1.00
20463;DHT22;10390;53.566;9.980;2024-01-11T05:41:31;25.80;1.00
20463;DHT22;10390;53.566;9.980;2024-01-11T05:43:57;25.90;1.00
20463;DHT22;10390;53.566;9.980;2024-01-11T05:46:22;25.90;1.00
20463;DHT22;10390;53.566;9.980;2024-01-11T05:48:48;25.90;1.00
20463;DHT22;10390;53.566;9.980;2024-01-11T05:51:13;25.80;1.00
20463;DHT22;10390;53.566;9.980;2024-01-11T05:53:39;25.80;1.00
20463;DHT22;10390;53.566;9.980;2024-01-11T05:56:08;25.80;1.00
20463;DHT22;10390;53.566;9.980;2024-01-11T05:58:35;25.80;1.00
20463;DHT22;10390;53.566;9.980;2024-01-11T06:01:02;25.80;1.00
20463;DHT22;10390;53.566;9.980;2024-01-11T06:03:28;25.80;1.00
20463;DHT22;10390;53.566;9.980;2024-01-11T06:05:55;25.80;1.00
20463;DHT22;10390;53.566;9.980;2024-01-11T06:08:21;25.80;1.00
20463;DHT22;10390;53.566;9.980;2024-01-11T06:10:46;25.80;1.00
20463;DHT22;10390;53.566;9.980;2024-01-11T06:13:12;25.80;1.00
20463;DHT22;10390;53.566;9.980;2024-01-11T06:15:38;25.70;1.00
20463;DHT22;10390;53.566;9.980;2024-01-11T06:18:03;25.70;1.00
20463;DHT22;10390;53.566;9.980;2024-01-11T06:20:30;25.70;1.00
20463;DHT22;10390;53.566;9.980;2024-01-11T06:22:55;25.60;1.00
20463;DHT22;10390;53.566;9.980;2024-01-11T06:25:21;25.60;1.00
20463;DHT22;10390;53.566;9.980;2024-01-11T06:27:47;25.60;1.00
20463;DHT22;10390;53.566;9.980;2024-01-11T06:30:13;25.60;1.00
20463;DHT22;10390;53.566;9.980;2024-01-11T06:32:38;25.60;1.00
20463;DHT22;10390;53.566;9.980;2024-01-11T06:35:04;25.60;1.00
20463;DHT22;10390;53.566;9.980;2024-01-11T06:37:30;25.60;1.00
20463;DHT22;10390;53.566;9.980;2024-01-11T06:39:56;25.60;1.00
20463;DHT22;10390;53.566;9.980;2024-01-11T06:42:22;25.70;1.00
20463;DHT22;10390;53.566;9.980;2024-01-11T06:44:48;25.70;1.00
20463;DHT22;10390;53.566;9.980;2024-01-11T06:47:13;25.60;1.00
20463;DHT22;10390;53.566;9.980;2024-01-11T06:49:41;25.70;1.00
20463;DHT22;10390;53.566;9.980;2024-01-11T06:52:06;25.70;1.00
20463;DHT22;10390;53.566;9.980;2024-01-11T06:54:32;25.70;1.00
20463;DHT22;10390;53.566;9.980;2024-01-11T06:56:58;25.70;1.00
20463;DHT22;10390;53.566;9.980;2024-01-11T06:59:24;25.70;1.00
20463;DHT22;10390;53.566;9.980;2024-01-11T07:01:49;25.70;1.00
20463;DHT22;10390;53.566;9.980;2024-01-11T07:04:15;25.60;1.00
20463;DHT22;10390;53.566;9.980;2024-01-11T07:06:41;25.70;1.00
20463;DHT22;10390;53.566;9.980;2024-01-11T07:09:06;25.60;1.00
20463;DHT22;10390;53.566;9.980;2024-01-11T07:11:32;25.60;1.00
20463;DHT22;10390;53.566;9.980;2024-01-11T07:13:58;25.60;1.00
20463;DHT22;10390;53.566;9.980;2024-01-11T07:16:24;25.60;1.00
20463;DHT22;10390;53.566;9.980;2024-01-11T07:18:49;25.60;1.00
20463;DHT22;10390;53.566;9.980;2024-01-11T07:21:22;25.60;1.00
20463;DHT22;10390;53.566;9.980;2024-01-11T07:23:55;25.60;1.00
20463;DHT22;10390;53.566;9.980;2024-01-11T07:26:22;25.60;1.00
20463;DHT22;10390;53.566;9.980;2024-01-11T07:28:49;25.60;1.00
20463;DHT22;10390;53.566;9.980;2024-01-11T07:31:14;25.60;1.00
20463;DHT22;10390;53.566;9.980;2024-01-11T07:33:40;25.70;1.00
20463;DHT22;10390;53.566;9.980;2024-01-11T07:36:06;25.70;1.00
20463;DHT22;10390;53.566;9.980;2024-01-11T07:38:32;25.60;1.00
20463;DHT22;10390;53.566;9.980;2024-01-11T07:40:57;25.60;1.00
20463;DHT22;10390;53.566;9.980;2024-01-11T07:43:23;25.70;1.00
20463;DHT22;10390;53.566;9.980;2024-01-11T07:45:49;25.70;1.00
20463;DHT22;10390;53.566;9.980;2024-01-11T07:48:15;25.60;1.00
20463;DHT22;10390;53.566;9.980;2024-01-11T07:50:41;25.60;1.00
20463;DHT22;10390;53.566;9.980;2024-01-11T07:53:07;25.60;1.00
20463;DHT22;10390;53.566;9.980;2024-01-11T07:55:32;25.60;1.00
20463;DHT22;10390;53.566;9.980;2024-01-11T07:57:58;25.60;1.00
20463;DHT22;10390;53.566;9.980;2024-01-11T08:00:23;25.60;1.00
20463;DHT22;10390;53.566;9.980;2024-01-11T08:02:49;25.60;1.00
20463;DHT22;10390;53.566;9.980;2024-01-11T08:05:15;25.60;1.00
20463;DHT22;10390;53.566;9.980;2024-01-11T08:07:40;25.60;1.00
20463;DHT22;10390;53.566;9.980;2024-01-11T08:10:08;25.60;1.00
20463;DHT22;10390;53.566;9.980;2024-01-11T08:12:35;25.60;1.00
20463;DHT22;10390;53.566;9.980;2024-01-11T08:15:00;25.50;1.00
20463;DHT22;10390;53.566;9.980;2024-01-11T08:17:26;25.50;1.00
20463;DHT22;10390;53.566;9.980;2024-01-11T08:19:52;25.50;1.00
20463;DHT22;10390;53.566;9.980;2024-01-11T08:22:17;25.50;1.00
20463;DHT22;10390;53.566;9.980;2024-01-11T08:24:43;25.60;1.00
20463;DHT22;10390;53.566;9.980;2024-01-11T08:27:08;25.60;1.00
20463;DHT22;10390;53.566;9.980;2024-01-11T08:29:34;25.60;1.00
20463;DHT22;10390;53.566;9.980;2024-01-11T08:32:00;25.50;1.00
20463;DHT22;10390;53.566;9.980;2024-01-11T08:34:29;25.50;1.00
20463;DHT22;10390;53.566;9.980;2024-01-11T08:36:55;25.50;1.00
20463;DHT22;10390;53.566;9.980;2024-01-11T08:39:20;25.50;1.00
20463;DHT22;10390;53.566;9.980;2024-01-11T08:41:47;25.50;1.00
20463;DHT22;10390;53.566;9.980;2024-01-11T08:44:13;25.50;1.00
20463;DHT22;10390;53.566;9.980;2024-01-11T08:46:39;25.50;1.00
20463;DHT22;10390;53.566;9.980;2024-01-11T08:49:04;25.50;1.00
20463;DHT22;10390;53.566;9.980;2024-01-11T08:51:30;25.50;1.00
20463;DHT22;10390;53.566;9.980;2024-01-11T08:53:56;25.50;1.00
20463;DHT22;10390;53.566;9.980;2024-01-11T08:56:22;25.60;1.00
20463;DHT22;10390;53.566;9.980;2024-01-11T08:58:48;25.70;1.00
20463;DHT22;10390;53.566;9.980;2024-01-11T09:01:14;25.70;1.00
20463;DHT22;10390;53.566;9.980;2024-01-11T09:03:40;25.70;1.00
20463;DHT22;10390;53.566;9.980;2024-01-11T09:06:06;25.70;1.00
20463;DHT22;10390;53.566;9.980;2024-01-11T09:08:31;25.80;1.00
20463;DHT22;10390;53.566;9.980;2024-01-11T09:10:57;25.70;1.00
20463;DHT22;10390;53.566;9.980;2024-01-11T09:13:27;25.70;1.00
20463;DHT22;10390;53.566;9.980;2024-01-11T09:15:53;25.70;1.00
20463;DHT22;10390;53.566;9.980;2024-01-11T09:18:20;25.80;1.00
20463;DHT22;10390;53.566;9.980;2024-01-11T09:20:45;25.80;1.00
20463;DHT22;10390;53.566;9.980;2024-01-11T09:23:11;25.70;1.00
20463;DHT22;10390;53.566;9.980;2024-01-11T09:25:37;25.70;1.00
20463;DHT22;10390;53.566;9.980;2024-01-11T09:28:03;25.70;1.00
20463;DHT22;10390;53.566;9.980;2024-01-11T09:30:28;25.70;1.00
20463;DHT22;10390;53.566;9.980;2024-01-11T09:32:54;25.70;1.00
20463;DHT22;10390;53.566;9.980;2024-01-11T09:35:22;25.60;1.00
20463;DHT22;10390;53.566;9.980;2024-01-11T09:37:47;25.60;1.00
20463;DHT22;10390;53.566;9.980;2024-01-11T09:40:13;25.60;1.00
20463;DHT22;10390;53.566;9.980;2024-01-11T09:42:39;25.60;1.00
20463;DHT22;10390;53.566;9.980;2024-01-11T09:45:10;25.60;1.00
20463;DHT22;10390;53.566;9.980;2024-01-11T09:47:38;25.60;1.00
20463;DHT22;10390;53.566;9.980;2024-01-11T09:50:04;25.70;1.00
20463;DHT22;10390;53.566;9.980;2024-01-11T09:52:30;25.70;1.00
20463;DHT22;10390;53.566;9.980;2024-01-11T09:54:58;25.70;1.00
20463;DHT22;10390;53.566;9.980;2024-01-11T09:57:30;25.70;1.00
20463;DHT22;10390;53.566;9.980;2024-01-11T09:59:57;25.70;1.00
20463;DHT22;10390;53.566;9.980;2024-01-11T10:02:24;25.70;1.00
20463;DHT22;10390;53.566;9.980;2024-01-11T10:04:53;25.70;1.00
20463;DHT22;10390;53.566;9.980;2024-01-11T10:07:22;25.70;1.00
20463;DHT22;10390;53.566;9.980;2024-01-11T10:09:48;25.70;1.00
20463;DHT22;10390;53.566;9.980;2024-01-11T10:12:15;25.80;1.00
20463;DHT22;10390;53.566;9.980;2024-01-11T10:14:40;25.70;1.00
20463;DHT22;10390;53.566;9.980;2024-01-11T10:17:07;25.70;1.00
20463;DHT22;10390;53.566;9.980;2024-01-11T10:19:32;25.70;1.00
20463;DHT22;10390;53.566;9.980;2024-01-11T10:21:58;25.70;1.00
20463;DHT22;10390;53.566;9.980;2024-01-11T10:24:24;25.70;1.00
20463;DHT22;10390;53.566;9.980;2024-01-11T10:26:52;25.70;1.00
20463;DHT22;10390;53.566;9.980;2024-01-11T10:29:20;25.60;1.00
20463;DHT22;10390;53.566;9.980;2024-01-11T10:31:47;25.70;1.00
20463;DHT22;10390;53.566;9.980;2024-01-11T10:34:12;25.60;1.00
20463;DHT22;10390;53.566;9.980;2024-01-11T10:36:38;25.70;1.00
20463;DHT22;10390;53.566;9.980;2024-01-11T10:39:04;25.70;1.00
20463;DHT22;10390;53.566;9.980;2024-01-11T10:41:32;25.70;1.00
20463;DHT22;10390;53.566;9.980;2024-01-11T10:44:03;25.60;1.00
20463;DHT22;10390;53.566;9.980;2024-01-11T10:46:29;25.60;1.00
20463;DHT22;10390;53.566;9.980;2024-01-11T10:48:59;25.60;1.00
20463;DHT22;10390;53.566;9.980;2024-01-11T10:51:26;25.60;1.00
20463;DHT22;10390;53.566;9.980;2024-01-11T10:53:54;25.70;1.00
20463;DHT22;10390;53.566;9.980;2024-01-11T10:56:20;25.60;1.00
20463;DHT22;10390;53.566;9.980;2024-01-11T10:58:47;25.70;1.00
20463;DHT22;10390;53.566;9.980;2024-01-11T11:01:14;25.60;1.00
20463;DHT22;10390;53.566;9.980;2024-01-11T11:03:40;25.60;1.00
20463;DHT22;10390;53.566;9.980;2024-01-11T11:06:11;25.70;1.00
20463;DHT22;10390;53.566;9.980;2024-01-11T11:08:37;25.60;1.00
20463;DHT22;10390;53.566;9.980;2024-01-11T11:11:04;25.70;1.00
20463;DHT22;10390;53.566;9.980;2024-01-11T11:13:33;25.70;1.00
20463;DHT22;10390;53.566;9.980;2024-01-11T11:16:02;25.70;1.00
20463;DHT22;10390;53.566;9.980;2024-01-11T11:18:32;25.70;1.00
20463;DHT22;10390;53.566;9.980;2024-01-11T11:20:58;25.70;1.00
20463;DHT22;10390;53.566;9.980;2024-01-11T11:23:24;25.70;1.00
20463;DHT22;10390;53.566;9.980;2024-01-11T11:25:50;25.70;1.00
20463;DHT22;10390;53.566;9.980;2024-01-11T11:28:18;25.80;1.00
20463;DHT22;10390;53.566;9.980;2024-01-11T11:30:48;25.70;1.00
20463;DHT22;10390;53.566;9.980;2024-01-11T11:33:24;25.70;1.00
20463;DHT22;10390;53.566;9.980;2024-01-11T11:35:54;25.70;1.00
20463;DHT22;10390;53.566;9.980;2024-01-11T11:38:22;25.70;1.00
20463;DHT22;10390;53.566;9.980;2024-01-11T11:40:48;25.80;1.00
20463;DHT22;10390;53.566;9.980;2024-01-11T11:43:18;25.70;1.00
20463;DHT22;10390;53.566;9.980;2024-01-11T11:45:45;25.70;1.00
20463;DHT22;10390;53.566;9.980;2024-01-11T11:51:12;25.70;1.00
20463;DHT22;10390;53.566;9.980;2024-01-11T11:53:39;25.70;1.00
20463;DHT22;10390;53.566;9.980;2024-01-11T11:56:06;25.70;1.00
20463;DHT22;10390;53.566;9.980;2024-01-11T11:58:33;25.80;1.00
20463;DHT22;10390;53.566;9.980;2024-01-11T12:01:03;25.80;1.00
20463;DHT22;10390;53.566;9.980;2024-01-11T12:03:33;25.80;1.00
20463;DHT22;10390;53.566;9.980;2024-01-11T12:06:03;25.70;1.00
20463;DHT22;10390;53.566;9.980;2024-01-11T12:08:29;25.80;1.00
20463;DHT22;10390;53.566;9.980;2024-01-11T12:10:55;25.80;1.00
20463;DHT22;10390;53.566;9.980;2024-01-11T12:13:20;25.80;1.00
20463;DHT22;10390;53.566;9.980;2024-01-11T12:15:46;25.80;1.00
20463;DHT22;10390;53.566;9.980;2024-01-11T12:18:12;25.80;1.00
20463;DHT22;10390;53.566;9.980;2024-01-11T12:20:38;25.80;1.00
20463;DHT22;10390;53.566;9.980;2024-01-11T12:23:03;25.80;1.00
20463;DHT22;10390;53.566;9.980;2024-01-11T12:25:30;25.80;1.00
20463;DHT22;10390;53.566;9.980;2024-01-11T12:27:57;25.80;1.00
20463;DHT22;10390;53.566;9.980;2024-01-11T12:30:23;25.80;1.00
20463;DHT22;10390;53.566;9.980;2024-01-11T12:32:49;25.80;1.00
20463;DHT22;10390;53.566;9.980;2024-01-11T12:35:16;25.80;1.00
20463;DHT22;10390;53.566;9.980;2024-01-11T12:37:55;25.80;1.00
20463;DHT22;10390;53.566;9.980;2024-01-11T12:40:21;25.80;1.00
20463;DHT22;10390;53.566;9.980;2024-01-11T12:42:48;25.80;1.00
20463;DHT22;10390;53.566;9.980;2024-01-11T12:45:17;25.80;1.00
20463;DHT22;10390;53.566;9.980;2024-01-11T12:47:43;25.80;1.00
20463;DHT22;10390;53.566;9.980;2024-01-11T12:50:10;25.80;1.00
20463;DHT22;10390;53.566;9.980;2024-01-11T12:52:37;25.80;1.00
20463;DHT22;10390;53.566;9.980;2024-01-11T12:55:04;25.70;1.00
20463;DHT22;10390;53.566;9.980;2024-01-11T12:57:30;25.70;1.00
20463;DHT22;10390;53.566;9.980;2024-01-11T13:00:09;25.70;1.00
20463;DHT22;10390;53.566;9.980;2024-01-11T13:02:36;25.80;1.00
20463;DHT22;10390;53.566;9.980;2024-01-11T13:05:01;25.70;1.00
20463;DHT22;10390;53.566;9.980;2024-01-11T13:07:28;25.70;1.00
20463;DHT22;10390;53.566;9.980;2024-01-11T13:09:53;25.70;1.00
20463;DHT22;10390;53.566;9.980;2024-01-11T13:12:19;25.70;1.00
20463;DHT22;10390;53.566;9.980;2024-01-11T13:14:46;25.70;1.00
20463;DHT22;10390;53.566;9.980;2024-01-11T13:17:12;25.70;1.00
20463;DHT22;10390;53.566;9.980;2024-01-11T13:19:38;25.80;1.00
20463;DHT22;10390;53.566;9.980;2024-01-11T13:22:04;25.80;1.00
20463;DHT22;10390;53.566;9.980;2024-01-11T13:24:30;25.80;1.00
20463;DHT22;10390;53.566;9.980;2024-01-11T13:26:56;25.80;1.00
20463;DHT22;10390;53.566;9.980;2024-01-11T13:29:22;25.80;1.00
20463;DHT22;10390;53.566;9.980;2024-01-11T13:31:47;25.80;1.00
20463;DHT22;10390;53.566;9.980;2024-01-11T13:34:13;25.80;1.00
20463;DHT22;10390;53.566;9.980;2024-01-11T13:36:38;25.80;1.00
20463;DHT22;10390;53.566;9.980;2024-01-11T13:39:04;25.80;1.00
20463;DHT22;10390;53.566;9.980;2024-01-11T13:41:33;25.80;1.00
20463;DHT22;10390;53.566;9.980;2024-01-11T13:43:58;25.80;1.00
20463;DHT22;10390;53.566;9.980;2024-01-11T13:46:24;25.80;1.00
20463;DHT22;10390;53.566;9.980;2024-01-11T13:48:50;25.80;1.00
20463;DHT22;10390;53.566;9.980;2024-01-11T13:51:15;25.80;1.00
20463;DHT22;10390;53.566;9.980;2024-01-11T13:53:41;25.80;1.00
20463;DHT22;10390;53.566;9.980;2024-01-11T13:56:07;25.80;1.00
20463;DHT22;10390;53.566;9.980;2024-01-11T13:58:32;25.80;1.00
20463;DHT22;10390;53.566;9.980;2024-01-11T14:00:58;25.70;1.00
20463;DHT22;10390;53.566;9.980;2024-01-11T14:03:23;25.70;1.00
20463;DHT22;10390;53.566;9.980;2024-01-11T14:05:49;25.80;1.00
20463;DHT22;10390;53.566;9.980;2024-01-11T14:08:15;25.80;1.00
20463;DHT22;10390;53.566;9.980;2024-01-11T14:10:41;25.80;1.00
20463;DHT22;10390;53.566;9.980;2024-01-11T14:13:06;25.80;1.00
20463;DHT22;10390;53.566;9.980;2024-01-11T14:15:32;25.80;1.00
20463;DHT22;10390;53.566;9.980;2024-01-11T14:17:57;25.80;1.00
20463;DHT22;10390;53.566;9.980;2024-01-11T14:20:23;25.80;1.00
20463;DHT22;10390;53.566;9.980;2024-01-11T14:22:50;25.80;1.00
20463;DHT22;10390;53.566;9.980;2024-01-11T14:25:20;25.90;1.00
20463;DHT22;10390;53.566;9.980;2024-01-11T14:27:48;25.90;1.00
20463;DHT22;10390;53.566;9.980;2024-01-11T14:30:14;25.90;1.00
20463;DHT22;10390;53.566;9.980;2024-01-11T14:32:40;25.90;1.00
20463;DHT22;10390;53.566;9.980;2024-01-11T14:35:07;25.90;1.00
20463;DHT22;10390;53.566;9.980;2024-01-11T14:37:34;26.00;1.00
20463;DHT22;10390;53.566;9.980;2024-01-11T14:40:00;25.90;1.00
20463;DHT22;10390;53.566;9.980;2024-01-11T14:42:26;25.90;1.00
20463;DHT22;10390;53.566;9.980;2024-01-11T14:44:52;25.90;1.00
20463;DHT22;10390;53.566;9.980;2024-01-11T14:47:18;25.90;1.00
20463;DHT22;10390;53.566;9.980;2024-01-11T14:49:45;25.90;1.00
20463;DHT22;10390;53.566;9.980;2024-01-11T14:52:10;25.90;1.00
20463;DHT22;10390;53.566;9.980;2024-01-11T14:54:36;25.90;1.00
20463;DHT22;10390;53.566;9.980;2024-01-11T14:57:01;25.90;1.00
20463;DHT22;10390;53.566;9.980;2024-01-11T14:59:27;25.90;1.00
20463;DHT22;10390;53.566;9.980;2024-01-11T15:01:53;25.90;1.00
20463;DHT22;10390;53.566;9.980;2024-01-11T15:04:19;25.80;1.00
20463;DHT22;10390;53.566;9.980;2024-01-11T15:06:45;25.80;1.00
20463;DHT22;10390;53.566;9.980;2024-01-11T15:09:11;25.90;1.00
20463;DHT22;10390;53.566;9.980;2024-01-11T15:11:40;25.80;1.00
20463;DHT22;10390;53.566;9.980;2024-01-11T15:14:07;25.80;1.00
20463;DHT22;10390;53.566;9.980;2024-01-11T15:16:35;25.80;1.00
20463;DHT22;10390;53.566;9.980;2024-01-11T15:19:01;25.80;1.00
20463;DHT22;10390;53.566;9.980;2024-01-11T15:21:26;25.80;1.00
20463;DHT22;10390;53.566;9.980;2024-01-11T15:23:54;25.80;1.00
20463;DHT22;10390;53.566;9.980;2024-01-11T15:26:20;25.90;1.00
20463;DHT22;10390;53.566;9.980;2024-01-11T15:28:46;25.90;1.00
20463;DHT22;10390;53.566;9.980;2024-01-11T15:31:13;25.90;1.00
20463;DHT22;10390;53.566;9.980;2024-01-11T15:33:39;25.90;1.00
20463;DHT22;10390;53.566;9.980;2024-01-11T15:36:05;25.90;1.00
20463;DHT22;10390;53.566;9.980;2024-01-11T15:38:31;25.90;1.00
20463;DHT22;10390;53.566;9.980;2024-01-11T15:40:57;25.90;1.00